createdAt,value
2018-12-21T00:02:44.549Z,10.60
2018-12-21T00:07:43.574Z,10.70
2018-12-21T00:12:42.276Z,10.60
2018-12-21T00:17:41.015Z,10.70
2018-12-21T00:22:39.749Z,10.70
2018-12-21T00:27:38.630Z,10.80
2018-12-21T00:32:42.759Z,10.80
2018-12-21T00:37:47.199Z,10.70
2018-12-21T00:42:55.970Z,10.70
2018-12-21T00:47:54.811Z,10.70
2018-12-21T00:52:53.617Z,10.70
2018-12-21T00:57:52.457Z,10.70
2018-12-21T01:02:51.327Z,10.70
2018-12-21T01:07:50.115Z,10.60
2018-12-21T01:12:48.937Z,10.70
2018-12-21T01:17:47.785Z,10.60
2018-12-21T01:22:46.514Z,10.60
2018-12-21T01:27:45.262Z,10.60
2018-12-21T01:32:44.111Z,10.70
2018-12-21T01:37:42.855Z,10.60
2018-12-21T01:42:41.715Z,10.70
2018-12-21T01:47:40.418Z,10.70
2018-12-21T01:52:39.157Z,10.70
2018-12-21T01:57:37.958Z,10.70
2018-12-21T02:02:36.743Z,10.70
2018-12-21T02:07:35.534Z,10.70
2018-12-21T02:12:35.290Z,10.70
2018-12-21T02:17:34.185Z,10.70
2018-12-21T02:22:32.997Z,10.70
2018-12-21T02:27:31.830Z,10.70
2018-12-21T02:32:30.598Z,10.70
2018-12-21T02:37:29.327Z,10.70
2018-12-21T02:42:28.072Z,10.70
2018-12-21T02:47:26.854Z,10.70
2018-12-21T02:52:25.717Z,10.70
2018-12-21T02:57:24.442Z,10.70
2018-12-21T03:02:23.290Z,10.70
2018-12-21T03:07:29.677Z,10.70
2018-12-21T03:12:28.509Z,10.60
2018-12-21T03:17:27.217Z,10.70
2018-12-21T03:22:26.000Z,10.60
2018-12-21T03:27:24.760Z,10.60
2018-12-21T03:32:23.706Z,10.60
2018-12-21T03:37:22.677Z,10.60
2018-12-21T03:42:21.499Z,10.60
2018-12-21T03:47:20.289Z,10.60
2018-12-21T03:52:24.141Z,10.60
2018-12-21T03:57:19.805Z,10.60
2018-12-21T04:02:20.851Z,10.50
2018-12-21T04:07:19.228Z,10.50
2018-12-21T04:12:17.985Z,10.50
2018-12-21T04:17:16.853Z,10.50
2018-12-21T04:22:15.545Z,10.50
2018-12-21T04:27:14.249Z,10.50
2018-12-21T04:32:13.046Z,10.50
2018-12-21T04:37:11.861Z,10.40
2018-12-21T04:42:10.661Z,10.40
2018-12-21T04:47:09.444Z,10.40
2018-12-21T04:52:08.259Z,10.40
2018-12-21T04:57:07.014Z,10.40
2018-12-21T05:02:05.940Z,10.40
2018-12-21T05:07:12.403Z,10.40
2018-12-21T05:12:05.569Z,10.40
2018-12-21T05:17:04.435Z,10.40
2018-12-21T05:22:03.139Z,10.40
2018-12-21T05:27:01.990Z,10.40
2018-12-21T05:32:00.748Z,10.40
2018-12-21T05:36:59.620Z,10.40
2018-12-21T05:41:58.325Z,10.40
2018-12-21T05:46:57.121Z,10.40
2018-12-21T05:51:55.911Z,10.40
2018-12-21T05:56:54.641Z,10.40
2018-12-21T06:01:53.353Z,10.40
2018-12-21T06:06:52.077Z,10.40
2018-12-21T06:11:50.857Z,10.40
2018-12-21T06:16:49.625Z,10.40
2018-12-21T06:21:48.339Z,10.40
2018-12-21T06:26:47.061Z,10.40
2018-12-21T06:31:45.837Z,10.40
2018-12-21T06:36:44.684Z,10.40
2018-12-21T06:41:43.479Z,10.40
2018-12-21T06:46:42.277Z,10.40
2018-12-21T06:51:41.045Z,10.40
2018-12-21T06:56:39.761Z,10.40
2018-12-21T07:01:38.470Z,10.40
2018-12-21T07:06:37.226Z,10.40
2018-12-21T07:11:36.009Z,10.40
2018-12-21T07:16:34.739Z,10.40
2018-12-21T07:21:33.453Z,10.40
2018-12-21T07:26:32.245Z,10.40
2018-12-21T07:31:31.117Z,10.40
2018-12-21T07:36:29.893Z,10.40
2018-12-21T07:41:28.609Z,10.40
2018-12-21T07:46:27.437Z,10.40
2018-12-21T07:51:26.285Z,10.40
2018-12-21T07:56:25.121Z,10.40
2018-12-21T08:01:23.833Z,10.40
2018-12-21T08:06:22.874Z,10.40
2018-12-21T08:11:21.636Z,10.40
2018-12-21T08:16:20.410Z,10.40
2018-12-21T08:21:19.157Z,10.30
2018-12-21T08:26:18.015Z,10.30
2018-12-21T08:31:16.750Z,10.30
2018-12-21T08:36:15.665Z,10.30
2018-12-21T08:41:14.601Z,10.40
2018-12-21T08:46:13.397Z,10.40
2018-12-21T08:51:12.152Z,10.30
2018-12-21T08:56:10.945Z,10.30
2018-12-21T09:01:09.773Z,10.40
2018-12-21T09:06:08.541Z,10.40
2018-12-21T09:11:07.267Z,10.40
2018-12-21T09:16:06.137Z,10.40
2018-12-21T09:21:04.990Z,10.40
2018-12-21T09:26:03.925Z,10.40
2018-12-21T09:31:02.857Z,10.40
2018-12-21T09:36:01.714Z,10.50
2018-12-21T09:41:00.597Z,10.50
2018-12-21T09:45:59.505Z,10.50
2018-12-21T09:50:58.378Z,10.50
2018-12-21T09:55:58.462Z,10.60
2018-12-21T10:00:57.314Z,10.60
2018-12-21T10:05:56.132Z,10.60
2018-12-21T10:10:54.917Z,10.60
2018-12-21T10:15:53.798Z,10.70
2018-12-21T10:20:52.629Z,10.70
2018-12-21T10:25:51.365Z,10.60
2018-12-21T10:30:50.070Z,10.70
2018-12-21T10:35:48.905Z,10.70
2018-12-21T10:40:47.772Z,10.70
2018-12-21T10:45:46.631Z,10.70
2018-12-21T10:50:45.476Z,10.70
2018-12-21T10:55:44.404Z,10.80
2018-12-21T11:00:43.102Z,10.80
2018-12-21T11:05:41.889Z,10.80
2018-12-21T11:10:40.625Z,10.80
2018-12-21T11:15:39.308Z,10.80
2018-12-21T11:20:38.166Z,10.80
2018-12-21T11:25:36.978Z,10.80
2018-12-21T11:30:35.694Z,10.90
2018-12-21T11:35:34.512Z,10.90
2018-12-21T11:40:33.330Z,10.80
2018-12-21T11:45:32.129Z,10.90
2018-12-21T11:50:30.953Z,10.80
2018-12-21T11:55:30.604Z,10.80
2018-12-21T12:00:29.331Z,10.80
2018-12-21T12:05:28.094Z,10.80
2018-12-21T12:15:52.075Z,10.80
2018-12-21T12:20:50.938Z,10.70
2018-12-21T12:25:49.821Z,10.70
2018-12-21T12:30:48.633Z,10.60
2018-12-21T12:35:47.410Z,10.60
2018-12-21T12:40:46.212Z,10.60
2018-12-21T12:45:45.050Z,10.60
2018-12-21T12:50:43.842Z,10.60
2018-12-21T12:55:42.619Z,10.60
2018-12-21T13:00:41.337Z,10.60
2018-12-21T13:05:40.054Z,10.60
2018-12-21T13:10:38.974Z,10.60
2018-12-21T13:15:37.848Z,10.60
2018-12-21T13:20:36.566Z,10.60
2018-12-21T13:25:35.360Z,10.60
2018-12-21T13:30:34.197Z,10.60
2018-12-21T13:35:33.052Z,10.60
2018-12-21T13:40:31.786Z,10.70
2018-12-21T13:45:30.534Z,10.70
2018-12-21T13:50:29.339Z,10.70
2018-12-21T13:55:28.122Z,10.70
2018-12-21T14:00:26.861Z,10.60
2018-12-21T14:05:25.625Z,10.60
2018-12-21T14:10:24.336Z,10.60
2018-12-21T14:15:23.125Z,10.70
2018-12-21T14:20:21.866Z,10.70
2018-12-21T14:25:28.665Z,10.70
2018-12-21T14:30:21.479Z,10.80
2018-12-21T14:35:20.237Z,10.80
2018-12-21T14:40:19.057Z,10.70
2018-12-21T14:45:17.806Z,10.80
2018-12-21T14:50:16.650Z,10.80
2018-12-21T14:55:15.373Z,10.80
2018-12-21T15:00:14.306Z,10.80
2018-12-21T15:05:13.186Z,10.80
2018-12-21T15:10:11.960Z,10.80
2018-12-21T15:15:10.830Z,10.80
2018-12-21T15:20:10.705Z,10.80
2018-12-21T15:25:09.552Z,10.80
2018-12-21T15:30:10.589Z,10.80
2018-12-21T15:35:09.485Z,10.80
2018-12-21T15:40:08.473Z,10.80
2018-12-21T15:45:07.330Z,10.80
2018-12-21T15:50:09.009Z,10.80
2018-12-21T15:55:07.869Z,10.80
2018-12-21T16:00:10.057Z,10.90
2018-12-21T16:05:08.953Z,10.90
2018-12-21T16:10:09.429Z,10.90
2018-12-21T16:15:08.402Z,11.00
2018-12-21T16:20:10.760Z,11.00
2018-12-21T16:25:09.625Z,11.00
2018-12-21T16:30:11.243Z,11.00
2018-12-21T16:35:10.214Z,11.00
2018-12-21T16:40:10.329Z,11.10
2018-12-21T16:45:10.549Z,11.10
2018-12-21T16:50:11.876Z,11.10
2018-12-21T16:55:10.691Z,11.20
2018-12-21T17:00:11.942Z,11.20
2018-12-21T17:05:10.892Z,11.30
2018-12-21T17:10:25.634Z,11.30
2018-12-21T17:15:24.494Z,11.30
2018-12-21T17:20:23.331Z,11.20
2018-12-21T17:25:22.131Z,11.20
2018-12-21T17:30:21.007Z,11.20
2018-12-21T17:35:19.721Z,11.30
2018-12-21T17:40:18.521Z,11.30
2018-12-21T17:45:17.297Z,11.30
2018-12-21T17:50:16.031Z,11.40
2018-12-21T17:55:14.861Z,11.40
2018-12-21T18:00:16.536Z,11.50
2018-12-21T18:05:15.418Z,11.50
2018-12-21T18:10:14.684Z,11.60
2018-12-21T18:15:13.422Z,11.60
2018-12-21T18:20:13.114Z,11.70
2018-12-21T18:25:15.173Z,11.80
2018-12-21T18:30:20.985Z,11.80
2018-12-21T18:35:20.048Z,11.90
2018-12-21T18:40:18.874Z,11.90
2018-12-21T18:45:17.636Z,12.00
2018-12-21T18:50:16.500Z,12.00
2018-12-21T18:55:16.557Z,12.00
2018-12-21T19:00:16.686Z,12.00
2018-12-21T19:05:15.577Z,12.00
2018-12-21T19:10:14.454Z,12.00
2018-12-21T19:15:13.327Z,12.10
2018-12-21T19:20:12.566Z,12.10
2018-12-21T19:25:12.257Z,12.10
2018-12-21T19:30:11.708Z,12.10
2018-12-21T19:35:11.726Z,12.00
2018-12-21T19:40:11.549Z,12.00
2018-12-21T19:45:13.238Z,12.00
2018-12-21T19:50:12.119Z,12.00
2018-12-21T19:55:16.941Z,12.00
2018-12-21T20:00:15.796Z,11.90
2018-12-21T20:05:14.625Z,11.90
2018-12-21T20:10:13.485Z,11.90
2018-12-21T20:15:12.268Z,11.80
2018-12-21T20:20:11.781Z,11.80
2018-12-21T20:25:11.035Z,11.80
2018-12-21T20:30:13.114Z,11.70
2018-12-21T20:35:11.985Z,11.80
2018-12-21T20:40:11.946Z,11.80
2018-12-21T20:45:11.373Z,11.70
2018-12-21T20:50:13.309Z,11.60
2018-12-21T20:55:12.221Z,11.60
2018-12-21T21:00:14.102Z,11.60
2018-12-21T21:05:13.005Z,11.60
2018-12-21T21:10:12.558Z,11.70
2018-12-21T21:15:12.701Z,11.60
2018-12-21T21:20:13.778Z,11.50
2018-12-21T21:25:12.619Z,11.40
2018-12-21T21:30:14.674Z,11.40
2018-12-21T21:35:13.480Z,11.30
2018-12-21T21:40:15.338Z,11.30
2018-12-21T21:45:14.287Z,11.20
2018-12-21T21:50:13.057Z,11.20
2018-12-21T21:55:11.870Z,11.10
2018-12-21T22:00:12.705Z,11.10
2018-12-21T22:05:11.543Z,11.10
2018-12-21T22:10:10.923Z,11.00
2018-12-21T22:15:10.570Z,11.10
2018-12-21T22:20:10.781Z,11.00
2018-12-21T22:25:09.545Z,11.00
2018-12-21T22:30:10.326Z,11.00
2018-12-21T22:35:09.041Z,11.00
2018-12-21T22:40:08.790Z,11.10
2018-12-21T22:45:08.065Z,11.10
2018-12-21T22:50:08.298Z,11.10
2018-12-21T22:55:08.153Z,11.10
2018-12-21T23:00:14.928Z,11.00
2018-12-21T23:05:13.917Z,11.00
2018-12-21T23:10:12.833Z,11.00
2018-12-21T23:15:11.603Z,11.00
2018-12-21T23:20:10.545Z,10.90
2018-12-21T23:25:09.441Z,11.00
2018-12-21T23:30:09.198Z,11.00
2018-12-21T23:35:08.213Z,11.00
2018-12-21T23:40:08.152Z,10.90
2018-12-21T23:45:07.425Z,10.90
2018-12-21T23:50:06.539Z,10.90
2018-12-21T23:55:05.889Z,10.90
